sensor_id;sensor_type;location;lat;lon;timestamp;temperature;humidity
10441;DHT22;5268;49.346;9.522;2023-03-14T04:06:16;10.90;99.90
10441;DHT22;5268;49.346;9.522;2023-03-14T04:11:18;10.90;99.90
10441;DHT22;5268;49.346;9.522;2023-03-14T04:16:22;10.80;99.90
10441;DHT22;5268;49.346;9.522;2023-03-14T04:21:26;10.80;99.90
10441;DHT22;5268;49.346;9.522;2023-03-14T04:26:28;10.70;99.90
10441;DHT22;5268;49.346;9.522;2023-03-14T04:31:30;10.70;99.90
10441;DHT22;5268;49.346;9.522;2023-03-14T04:36:33;10.70;99.90
10441;DHT22;5268;49.346;9.522;2023-03-14T04:41:35;10.60;99.90
10441;DHT22;5268;49.346;9.522;2023-03-14T04:46:37;10.50;99.90
10441;DHT22;5268;49.346;9.522;2023-03-14T04:51:41;10.50;99.90
10441;DHT22;5268;49.346;9.522;2023-03-14T04:56:43;10.40;99.90
10441;DHT22;5268;49.346;9.522;2023-03-14T05:01:45;10.40;99.90
10441;DHT22;5268;49.346;9.522;2023-03-14T05:06:49;10.40;99.90
10441;DHT22;5268;49.346;9.522;2023-03-14T05:11:52;10.30;99.90
10441;DHT22;5268;49.346;9.522;2023-03-14T05:16:54;10.30;99.90
10441;DHT22;5268;49.346;9.522;2023-03-14T05:21:57;10.20;99.90
10441;DHT22;5268;49.346;9.522;2023-03-14T05:26:59;10.20;99.90
10441;DHT22;5268;49.346;9.522;2023-03-14T05:32:01;10.20;99.90
10441;DHT22;5268;49.346;9.522;2023-03-14T05:37:04;10.10;99.90
10441;DHT22;5268;49.346;9.522;2023-03-14T05:42:07;10.10;99.90
10441;DHT22;5268;49.346;9.522;2023-03-14T05:47:09;10.00;99.90
10441;DHT22;5268;49.346;9.522;2023-03-14T05:52:13;10.00;99.90
10441;DHT22;5268;49.346;9.522;2023-03-14T05:57:15;10.00;99.90
10441;DHT22;5268;49.346;9.522;2023-03-14T06:02:17;10.00;99.90
10441;DHT22;5268;49.346;9.522;2023-03-14T06:07:20;10.00;99.90
10441;DHT22;5268;49.346;9.522;2023-03-14T06:12:22;10.00;99.90
10441;DHT22;5268;49.346;9.522;2023-03-14T06:17:24;10.00;99.90
10441;DHT22;5268;49.346;9.522;2023-03-14T06:22:28;10.00;99.90
10441;DHT22;5268;49.346;9.522;2023-03-14T06:27:30;10.10;99.90
10441;DHT22;5268;49.346;9.522;2023-03-14T06:32:32;10.10;99.90
10441;DHT22;5268;49.346;9.522;2023-03-14T06:37:35;10.20;99.90
10441;DHT22;5268;49.346;9.522;2023-03-14T06:42:37;10.20;99.90
10441;DHT22;5268;49.346;9.522;2023-03-14T06:47:39;10.20;99.90
10441;DHT22;5268;49.346;9.522;2023-03-14T06:52:43;10.20;99.90
10441;DHT22;5268;49.346;9.522;2023-03-14T06:57:48;10.30;99.90
10441;DHT22;5268;49.346;9.522;2023-03-14T07:02:50;10.40;99.90
10441;DHT22;5268;49.346;9.522;2023-03-14T07:07:54;10.50;99.90
10441;DHT22;5268;49.346;9.522;2023-03-14T07:12:56;10.50;99.90
10441;DHT22;5268;49.346;9.522;2023-03-14T07:17:58;10.50;99.90
10441;DHT22;5268;49.346;9.522;2023-03-14T07:23:01;10.50;99.90
10441;DHT22;5268;49.346;9.522;2023-03-14T07:28:04;10.60;99.90
10441;DHT22;5268;49.346;9.522;2023-03-14T07:33:06;10.60;99.90
10441;DHT22;5268;49.346;9.522;2023-03-14T07:38:09;10.60;99.90
10441;DHT22;5268;49.346;9.522;2023-03-14T07:43:11;10.60;99.90
10441;DHT22;5268;49.346;9.522;2023-03-14T07:48:13;10.70;99.90
10441;DHT22;5268;49.346;9.522;2023-03-14T07:53:16;10.70;99.90
10441;DHT22;5268;49.346;9.522;2023-03-14T07:58:19;10.80;99.90
10441;DHT22;5268;49.346;9.522;2023-03-14T08:03:22;10.80;99.90
10441;DHT22;5268;49.346;9.522;2023-03-14T08:08:25;10.80;99.90
10441;DHT22;5268;49.346;9.522;2023-03-14T08:13:27;10.90;99.90
10441;DHT22;5268;49.346;9.522;2023-03-14T08:18:29;10.90;99.90
10441;DHT22;5268;49.346;9.522;2023-03-14T08:23:33;10.90;99.90
10441;DHT22;5268;49.346;9.522;2023-03-14T08:28:35;11.00;99.90
10441;DHT22;5268;49.346;9.522;2023-03-14T08:33:37;11.00;99.90
10441;DHT22;5268;49.346;9.522;2023-03-14T08:38:41;11.10;99.90
10441;DHT22;5268;49.346;9.522;2023-03-14T08:43:43;11.30;99.90
10441;DHT22;5268;49.346;9.522;2023-03-14T08:48:45;11.40;99.90
10441;DHT22;5268;49.346;9.522;2023-03-14T08:53:48;11.60;99.90
10441;DHT22;5268;49.346;9.522;2023-03-14T08:58:50;11.60;99.90
10441;DHT22;5268;49.346;9.522;2023-03-14T09:03:53;11.60;99.90
10441;DHT22;5268;49.346;9.522;2023-03-14T09:08:57;11.60;99.90
10441;DHT22;5268;49.346;9.522;2023-03-14T09:13:59;11.60;99.90
10441;DHT22;5268;49.346;9.522;2023-03-14T09:19:01;11.60;99.90
10441;DHT22;5268;49.346;9.522;2023-03-14T09:24:06;11.60;99.90
10441;DHT22;5268;49.346;9.522;2023-03-14T09:29:08;11.60;99.90
10441;DHT22;5268;49.346;9.522;2023-03-14T09:34:10;11.60;99.90
10441;DHT22;5268;49.346;9.522;2023-03-14T09:39:14;11.80;99.90
10441;DHT22;5268;49.346;9.522;2023-03-14T09:44:21;11.90;99.90
10441;DHT22;5268;49.346;9.522;2023-03-14T09:49:27;12.00;99.90
10441;DHT22;5268;49.346;9.522;2023-03-14T09:54:36;12.00;99.90
10441;DHT22;5268;49.346;9.522;2023-03-14T09:59:41;12.00;99.90
10441;DHT22;5268;49.346;9.522;2023-03-14T10:04:45;11.90;99.90
10441;DHT22;5268;49.346;9.522;2023-03-14T10:09:50;12.00;99.90
10441;DHT22;5268;49.346;9.522;2023-03-14T10:14:52;12.00;99.90
10441;DHT22;5268;49.346;9.522;2023-03-14T10:19:56;12.00;99.90
10441;DHT22;5268;49.346;9.522;2023-03-14T10:25:03;12.00;99.90
10441;DHT22;5268;49.346;9.522;2023-03-14T10:30:07;12.00;99.90
10441;DHT22;5268;49.346;9.522;2023-03-14T10:35:27;12.00;99.90
10441;DHT22;5268;49.346;9.522;2023-03-14T10:40:39;12.10;99.90
10441;DHT22;5268;49.346;9.522;2023-03-14T10:45:42;12.20;99.90
10441;DHT22;5268;49.346;9.522;2023-03-14T10:50:50;12.30;99.90
10441;DHT22;5268;49.346;9.522;2023-03-14T10:55:56;12.30;99.90
10441;DHT22;5268;49.346;9.522;2023-03-14T11:01:07;12.20;99.90
10441;DHT22;5268;49.346;9.522;2023-03-14T11:06:16;12.20;99.90
10441;DHT22;5268;49.346;9.522;2023-03-14T11:11:23;12.10;99.90
10441;DHT22;5268;49.346;9.522;2023-03-14T11:16:32;12.10;99.90
10441;DHT22;5268;49.346;9.522;2023-03-14T11:21:38;11.90;99.90
10441;DHT22;5268;49.346;9.522;2023-03-14T11:26:48;11.90;99.90
10441;DHT22;5268;49.346;9.522;2023-03-14T11:31:55;11.90;99.90
10441;DHT22;5268;49.346;9.522;2023-03-14T11:37:01;11.90;99.90
10441;DHT22;5268;49.346;9.522;2023-03-14T11:42:12;11.90;99.90
10441;DHT22;5268;49.346;9.522;2023-03-14T11:47:21;11.80;99.90
10441;DHT22;5268;49.346;9.522;2023-03-14T11:52:30;11.70;99.90
10441;DHT22;5268;49.346;9.522;2023-03-14T11:57:35;11.70;99.90
10441;DHT22;5268;49.346;9.522;2023-03-14T12:02:45;11.60;99.90
10441;DHT22;5268;49.346;9.522;2023-03-14T12:08:12;11.60;99.90
10441;DHT22;5268;49.346;9.522;2023-03-14T12:13:22;11.50;99.90
10441;DHT22;5268;49.346;9.522;2023-03-14T12:18:32;11.50;99.90
10441;DHT22;5268;49.346;9.522;2023-03-14T12:23:41;11.40;99.90
10441;DHT22;5268;49.346;9.522;2023-03-14T12:28:49;11.30;99.90
10441;DHT22;5268;49.346;9.522;2023-03-14T12:34:01;11.20;99.90
10441;DHT22;5268;49.346;9.522;2023-03-14T12:39:24;11.20;99.90
10441;DHT22;5268;49.346;9.522;2023-03-14T12:44:44;11.10;99.90
10441;DHT22;5268;49.346;9.522;2023-03-14T12:49:48;11.00;99.90
10441;DHT22;5268;49.346;9.522;2023-03-14T12:54:56;10.90;99.90
10441;DHT22;5268;49.346;9.522;2023-03-14T13:00:13;10.90;99.90
10441;DHT22;5268;49.346;9.522;2023-03-14T13:05:22;10.80;99.90
10441;DHT22;5268;49.346;9.522;2023-03-14T13:10:26;10.70;99.90
10441;DHT22;5268;49.346;9.522;2023-03-14T13:15:34;10.60;99.90
10441;DHT22;5268;49.346;9.522;2023-03-14T13:20:38;10.50;99.90
10441;DHT22;5268;49.346;9.522;2023-03-14T13:25:45;10.30;99.90
10441;DHT22;5268;49.346;9.522;2023-03-14T13:30:54;10.10;99.90
10441;DHT22;5268;49.346;9.522;2023-03-14T13:35:58;10.00;99.90
10441;DHT22;5268;49.346;9.522;2023-03-14T13:41:04;9.80;99.90
10441;DHT22;5268;49.346;9.522;2023-03-14T13:46:13;9.70;99.90
10441;DHT22;5268;49.346;9.522;2023-03-14T13:51:17;9.50;99.90
10441;DHT22;5268;49.346;9.522;2023-03-14T13:56:21;9.40;99.90
10441;DHT22;5268;49.346;9.522;2023-03-14T14:01:27;9.20;99.90
10441;DHT22;5268;49.346;9.522;2023-03-14T14:06:32;9.10;99.90
10441;DHT22;5268;49.346;9.522;2023-03-14T14:11:43;9.00;99.90
10441;DHT22;5268;49.346;9.522;2023-03-14T14:16:49;9.00;99.90
10441;DHT22;5268;49.346;9.522;2023-03-14T14:21:53;9.10;99.90
10441;DHT22;5268;49.346;9.522;2023-03-14T14:27:00;9.20;99.90
10441;DHT22;5268;49.346;9.522;2023-03-14T14:32:12;9.30;99.90
10441;DHT22;5268;49.346;9.522;2023-03-14T14:37:18;9.40;99.90
10441;DHT22;5268;49.346;9.522;2023-03-14T14:42:24;9.40;99.90
10441;DHT22;5268;49.346;9.522;2023-03-14T14:47:29;9.50;99.90
10441;DHT22;5268;49.346;9.522;2023-03-14T14:52:34;9.40;99.90
10441;DHT22;5268;49.346;9.522;2023-03-14T14:57:40;9.40;99.90
10441;DHT22;5268;49.346;9.522;2023-03-14T15:02:52;9.30;99.90
10441;DHT22;5268;49.346;9.522;2023-03-14T15:07:55;9.30;99.90
10441;DHT22;5268;49.346;9.522;2023-03-14T15:12:57;9.30;99.90
10441;DHT22;5268;49.346;9.522;2023-03-14T15:18:01;9.20;99.90
10441;DHT22;5268;49.346;9.522;2023-03-14T15:23:09;9.30;99.90
10441;DHT22;5268;49.346;9.522;2023-03-14T15:28:15;9.30;99.90
10441;DHT22;5268;49.346;9.522;2023-03-14T15:33:20;9.30;99.90
10441;DHT22;5268;49.346;9.522;2023-03-14T15:38:22;9.40;99.90
10441;DHT22;5268;49.346;9.522;2023-03-14T15:43:25;9.40;99.90
10441;DHT22;5268;49.346;9.522;2023-03-14T15:48:28;9.50;99.90
10441;DHT22;5268;49.346;9.522;2023-03-14T15:53:34;9.40;99.90
10441;DHT22;5268;49.346;9.522;2023-03-14T15:58:45;9.40;99.90
10441;DHT22;5268;49.346;9.522;2023-03-14T16:03:58;9.40;99.90
10441;DHT22;5268;49.346;9.522;2023-03-14T16:09:02;9.60;99.90
10441;DHT22;5268;49.346;9.522;2023-03-14T16:14:05;9.60;99.90
10441;DHT22;5268;49.346;9.522;2023-03-14T16:19:08;9.70;99.90
10441;DHT22;5268;49.346;9.522;2023-03-14T16:24:21;9.70;99.90
10441;DHT22;5268;49.346;9.522;2023-03-14T16:29:23;9.70;99.90
10441;DHT22;5268;49.346;9.522;2023-03-14T16:34:26;9.60;99.90
10441;DHT22;5268;49.346;9.522;2023-03-14T16:39:29;9.50;99.90
10441;DHT22;5268;49.346;9.522;2023-03-14T16:44:33;9.50;99.90
10441;DHT22;5268;49.346;9.522;2023-03-14T16:49:39;9.40;99.90
10441;DHT22;5268;49.346;9.522;2023-03-14T16:54:42;9.30;99.90
10441;DHT22;5268;49.346;9.522;2023-03-14T16:59:44;9.20;99.90
10441;DHT22;5268;49.346;9.522;2023-03-14T17:04:52;9.10;99.90
10441;DHT22;5268;49.346;9.522;2023-03-14T17:09:55;9.00;99.90
10441;DHT22;5268;49.346;9.522;2023-03-14T17:14:58;8.90;99.90
10441;DHT22;5268;49.346;9.522;2023-03-14T17:20:04;8.80;99.90
10441;DHT22;5268;49.346;9.522;2023-03-14T17:25:09;8.70;99.90
10441;DHT22;5268;49.346;9.522;2023-03-14T17:30:12;8.60;99.90
10441;DHT22;5268;49.346;9.522;2023-03-14T17:35:19;8.50;99.90
10441;DHT22;5268;49.346;9.522;2023-03-14T17:40:28;8.50;99.90
10441;DHT22;5268;49.346;9.522;2023-03-14T17:45:34;8.50;99.90
10441;DHT22;5268;49.346;9.522;2023-03-14T17:50:54;8.50;99.90
10441;DHT22;5268;49.346;9.522;2023-03-14T17:56:20;8.40;99.90
10441;DHT22;5268;49.346;9.522;2023-03-14T18:01:27;8.40;99.90
10441;DHT22;5268;49.346;9.522;2023-03-14T18:06:35;8.40;99.90
10441;DHT22;5268;49.346;9.522;2023-03-14T18:12:07;8.40;99.90
10441;DHT22;5268;49.346;9.522;2023-03-14T18:17:22;8.30;99.90
10441;DHT22;5268;49.346;9.522;2023-03-14T18:22:26;8.30;99.90
10441;DHT22;5268;49.346;9.522;2023-03-14T18:27:29;8.30;99.90
10441;DHT22;5268;49.346;9.522;2023-03-14T18:32:31;8.20;99.90
10441;DHT22;5268;49.346;9.522;2023-03-14T18:37:35;8.20;99.90
10441;DHT22;5268;49.346;9.522;2023-03-14T18:42:40;8.20;99.90
10441;DHT22;5268;49.346;9.522;2023-03-14T18:47:42;8.20;99.90
10441;DHT22;5268;49.346;9.522;2023-03-14T18:52:56;8.20;99.90
10441;DHT22;5268;49.346;9.522;2023-03-14T18:58:04;8.20;99.90
10441;DHT22;5268;49.346;9.522;2023-03-14T19:03:07;8.10;99.90
10441;DHT22;5268;49.346;9.522;2023-03-14T19:08:11;8.10;99.90
10441;DHT22;5268;49.346;9.522;2023-03-14T19:13:14;8.00;99.90
10441;DHT22;5268;49.346;9.522;2023-03-14T19:18:17;8.00;99.90
10441;DHT22;5268;49.346;9.522;2023-03-14T19:23:22;8.00;99.90
10441;DHT22;5268;49.346;9.522;2023-03-14T19:28:25;7.90;99.90
10441;DHT22;5268;49.346;9.522;2023-03-14T19:33:28;7.90;99.90
10441;DHT22;5268;49.346;9.522;2023-03-14T19:38:32;7.90;99.90
10441;DHT22;5268;49.346;9.522;2023-03-14T19:43:34;7.90;99.90
10441;DHT22;5268;49.346;9.522;2023-03-14T19:48:37;7.80;99.90
10441;DHT22;5268;49.346;9.522;2023-03-14T19:53:41;7.80;99.90
10441;DHT22;5268;49.346;9.522;2023-03-14T19:58:43;7.60;99.90
10441;DHT22;5268;49.346;9.522;2023-03-14T20:03:45;7.40;99.90
10441;DHT22;5268;49.346;9.522;2023-03-14T20:08:49;7.20;99.90
10441;DHT22;5268;49.346;9.522;2023-03-14T20:13:51;7.10;99.90
10441;DHT22;5268;49.346;9.522;2023-03-14T20:18:53;7.00;99.90
10441;DHT22;5268;49.346;9.522;2023-03-14T20:23:57;6.90;99.90
10441;DHT22;5268;49.346;9.522;2023-03-14T20:29:00;6.80;99.90
10441;DHT22;5268;49.346;9.522;2023-03-14T20:34:03;6.80;99.90
10441;DHT22;5268;49.346;9.522;2023-03-14T20:39:06;6.70;99.90
10441;DHT22;5268;49.346;9.522;2023-03-14T20:44:11;6.70;99.90
10441;DHT22;5268;49.346;9.522;2023-03-14T20:49:18;6.50;99.90
10441;DHT22;5268;49.346;9.522;2023-03-14T20:54:21;6.30;99.90
10441;DHT22;5268;49.346;9.522;2023-03-14T20:59:23;6.20;99.90
10441;DHT22;5268;49.346;9.522;2023-03-14T21:04:27;6.00;99.90
10441;DHT22;5268;49.346;9.522;2023-03-14T21:09:33;6.00;99.90
10441;DHT22;5268;49.346;9.522;2023-03-14T21:14:37;5.90;99.90
10441;DHT22;5268;49.346;9.522;2023-03-14T21:19:41;5.90;99.90
10441;DHT22;5268;49.346;9.522;2023-03-14T21:24:51;5.80;99.90
10441;DHT22;5268;49.346;9.522;2023-03-14T21:30:04;5.80;99.90
10441;DHT22;5268;49.346;9.522;2023-03-14T21:35:09;5.80;99.90
10441;DHT22;5268;49.346;9.522;2023-03-14T21:40:14;5.80;99.90
10441;DHT22;5268;49.346;9.522;2023-03-14T21:50:29;5.80;99.90
10441;DHT22;5268;49.346;9.522;2023-03-14T21:55:33;5.70;99.90
10441;DHT22;5268;49.346;9.522;2023-03-14T22:00:36;5.60;99.90
10441;DHT22;5268;49.346;9.522;2023-03-14T22:05:41;5.60;99.90
10441;DHT22;5268;49.346;9.522;2023-03-14T22:10:48;5.50;99.90
10441;DHT22;5268;49.346;9.522;2023-03-14T22:15:54;5.50;99.90
10441;DHT22;5268;49.346;9.522;2023-03-14T22:20:56;5.50;99.90
10441;DHT22;5268;49.346;9.522;2023-03-14T22:26:00;5.40;99.90
10441;DHT22;5268;49.346;9.522;2023-03-14T22:31:03;5.40;99.90
10441;DHT22;5268;49.346;9.522;2023-03-14T22:36:07;5.30;99.90
10441;DHT22;5268;49.346;9.522;2023-03-14T22:41:11;5.20;99.90
10441;DHT22;5268;49.346;9.522;2023-03-14T22:46:16;5.10;99.90
10441;DHT22;5268;49.346;9.522;2023-03-14T22:51:19;5.00;99.90
